sensor_id;sensor_type;location;lat;lon;timestamp;temperature;humidity
50738;DHT22;36703;48.154;17.126;2022-08-19T00:03:18;31.50;39.10
50738;DHT22;36703;48.154;17.126;2022-08-19T00:07:19;31.60;39.10
50738;DHT22;36703;48.154;17.126;2022-08-19T00:11:21;31.60;39.60
50738;DHT22;36703;48.154;17.126;2022-08-19T00:15:23;31.50;38.70
50738;DHT22;36703;48.154;17.126;2022-08-19T00:19:24;31.60;38.70
50738;DHT22;36703;48.154;17.126;2022-08-19T00:23:26;31.50;38.70
50738;DHT22;36703;48.154;17.126;2022-08-19T00:27:28;31.50;38.60
50738;DHT22;36703;48.154;17.126;2022-08-19T00:31:29;31.50;38.90
50738;DHT22;36703;48.154;17.126;2022-08-19T00:35:32;31.40;39.00
50738;DHT22;36703;48.154;17.126;2022-08-19T00:39:34;31.40;38.90
50738;DHT22;36703;48.154;17.126;2022-08-19T00:43:36;31.30;39.10
50738;DHT22;36703;48.154;17.126;2022-08-19T00:47:40;31.20;39.10
50738;DHT22;36703;48.154;17.126;2022-08-19T00:51:44;31.20;39.10
50738;DHT22;36703;48.154;17.126;2022-08-19T00:55:48;31.20;39.20
50738;DHT22;36703;48.154;17.126;2022-08-19T00:59:52;31.20;39.30
50738;DHT22;36703;48.154;17.126;2022-08-19T01:03:55;31.20;39.40
50738;DHT22;36703;48.154;17.126;2022-08-19T01:07:59;31.10;39.50
50738;DHT22;36703;48.154;17.126;2022-08-19T01:12:02;31.10;39.50
50738;DHT22;36703;48.154;17.126;2022-08-19T01:16:07;31.00;39.60
50738;DHT22;36703;48.154;17.126;2022-08-19T01:20:13;31.00;39.70
50738;DHT22;36703;48.154;17.126;2022-08-19T01:24:17;30.90;39.70
50738;DHT22;36703;48.154;17.126;2022-08-19T01:28:24;30.90;39.70
50738;DHT22;36703;48.154;17.126;2022-08-19T01:32:27;30.80;39.80
50738;DHT22;36703;48.154;17.126;2022-08-19T01:40:46;30.80;39.80
50738;DHT22;36703;48.154;17.126;2022-08-19T01:44:48;30.70;39.80
50738;DHT22;36703;48.154;17.126;2022-08-19T01:48:49;30.70;39.80
50738;DHT22;36703;48.154;17.126;2022-08-19T01:52:51;30.60;39.80
50738;DHT22;36703;48.154;17.126;2022-08-19T01:57:00;30.60;39.80
50738;DHT22;36703;48.154;17.126;2022-08-19T02:01:05;30.60;39.80
50738;DHT22;36703;48.154;17.126;2022-08-19T02:05:07;30.60;39.80
50738;DHT22;36703;48.154;17.126;2022-08-19T02:09:09;30.60;39.80
50738;DHT22;36703;48.154;17.126;2022-08-19T02:13:12;30.50;39.70
50738;DHT22;36703;48.154;17.126;2022-08-19T02:17:14;30.50;39.70
50738;DHT22;36703;48.154;17.126;2022-08-19T02:21:17;30.50;39.60
50738;DHT22;36703;48.154;17.126;2022-08-19T02:25:19;30.50;39.60
50738;DHT22;36703;48.154;17.126;2022-08-19T02:29:20;30.50;39.70
50738;DHT22;36703;48.154;17.126;2022-08-19T02:33:22;30.40;39.60
50738;DHT22;36703;48.154;17.126;2022-08-19T02:37:23;30.50;39.70
50738;DHT22;36703;48.154;17.126;2022-08-19T02:41:43;30.50;39.60
50738;DHT22;36703;48.154;17.126;2022-08-19T02:45:45;30.50;39.60
50738;DHT22;36703;48.154;17.126;2022-08-19T02:49:46;30.50;39.60
50738;DHT22;36703;48.154;17.126;2022-08-19T02:53:51;30.40;39.40
50738;DHT22;36703;48.154;17.126;2022-08-19T02:57:53;30.40;39.30
50738;DHT22;36703;48.154;17.126;2022-08-19T03:01:54;30.40;39.30
50738;DHT22;36703;48.154;17.126;2022-08-19T03:06:11;30.40;39.30
50738;DHT22;36703;48.154;17.126;2022-08-19T03:10:14;30.40;39.30
50738;DHT22;36703;48.154;17.126;2022-08-19T03:14:15;30.40;39.30
50738;DHT22;36703;48.154;17.126;2022-08-19T03:18:19;30.40;39.30
50738;DHT22;36703;48.154;17.126;2022-08-19T03:22:20;30.40;39.30
50738;DHT22;36703;48.154;17.126;2022-08-19T03:26:22;30.40;39.20
50738;DHT22;36703;48.154;17.126;2022-08-19T03:30:23;30.30;39.00
50738;DHT22;36703;48.154;17.126;2022-08-19T03:34:26;30.30;39.10
50738;DHT22;36703;48.154;17.126;2022-08-19T03:38:30;30.30;39.20
50738;DHT22;36703;48.154;17.126;2022-08-19T03:42:33;30.30;39.20
50738;DHT22;36703;48.154;17.126;2022-08-19T03:46:35;30.30;39.20
50738;DHT22;36703;48.154;17.126;2022-08-19T03:50:40;30.30;39.30
50738;DHT22;36703;48.154;17.126;2022-08-19T03:54:41;30.30;39.30
50738;DHT22;36703;48.154;17.126;2022-08-19T03:58:44;30.20;39.30
50738;DHT22;36703;48.154;17.126;2022-08-19T04:02:45;30.20;39.40
50738;DHT22;36703;48.154;17.126;2022-08-19T04:06:49;30.20;39.60
50738;DHT22;36703;48.154;17.126;2022-08-19T04:10:51;30.20;40.20
50738;DHT22;36703;48.154;17.126;2022-08-19T04:14:52;30.20;39.70
50738;DHT22;36703;48.154;17.126;2022-08-19T04:18:54;30.10;39.70
50738;DHT22;36703;48.154;17.126;2022-08-19T04:22:57;30.10;39.80
50738;DHT22;36703;48.154;17.126;2022-08-19T04:27:02;30.10;39.90
50738;DHT22;36703;48.154;17.126;2022-08-19T04:31:05;30.10;40.00
50738;DHT22;36703;48.154;17.126;2022-08-19T04:35:06;30.10;40.00
50738;DHT22;36703;48.154;17.126;2022-08-19T04:39:13;30.10;40.00
50738;DHT22;36703;48.154;17.126;2022-08-19T04:43:15;30.00;39.90
50738;DHT22;36703;48.154;17.126;2022-08-19T04:47:17;29.90;40.10
50738;DHT22;36703;48.154;17.126;2022-08-19T04:51:18;29.90;40.20
50738;DHT22;36703;48.154;17.126;2022-08-19T04:55:21;29.90;40.20
50738;DHT22;36703;48.154;17.126;2022-08-19T04:59:23;29.80;40.30
50738;DHT22;36703;48.154;17.126;2022-08-19T05:03:25;29.90;40.50
50738;DHT22;36703;48.154;17.126;2022-08-19T05:07:27;29.80;41.10
50738;DHT22;36703;48.154;17.126;2022-08-19T05:11:31;29.80;40.80
50738;DHT22;36703;48.154;17.126;2022-08-19T05:15:34;29.80;40.80
50738;DHT22;36703;48.154;17.126;2022-08-19T05:19:36;29.90;40.80
50738;DHT22;36703;48.154;17.126;2022-08-19T05:23:56;29.90;40.80
50738;DHT22;36703;48.154;17.126;2022-08-19T05:27:58;29.90;40.80
50738;DHT22;36703;48.154;17.126;2022-08-19T05:32:00;30.00;40.90
50738;DHT22;36703;48.154;17.126;2022-08-19T05:36:03;30.10;40.90
50738;DHT22;36703;48.154;17.126;2022-08-19T05:40:05;30.10;41.00
50738;DHT22;36703;48.154;17.126;2022-08-19T05:44:07;30.10;41.10
50738;DHT22;36703;48.154;17.126;2022-08-19T05:48:10;30.10;41.20
50738;DHT22;36703;48.154;17.126;2022-08-19T05:52:14;30.10;41.20
50738;DHT22;36703;48.154;17.126;2022-08-19T05:56:17;30.10;41.20
50738;DHT22;36703;48.154;17.126;2022-08-19T06:00:19;30.20;41.20
50738;DHT22;36703;48.154;17.126;2022-08-19T06:04:21;30.20;41.20
50738;DHT22;36703;48.154;17.126;2022-08-19T06:08:22;30.30;41.20
50738;DHT22;36703;48.154;17.126;2022-08-19T06:12:24;30.40;41.30
50738;DHT22;36703;48.154;17.126;2022-08-19T06:16:29;30.50;41.20
50738;DHT22;36703;48.154;17.126;2022-08-19T06:20:32;30.50;41.10
50738;DHT22;36703;48.154;17.126;2022-08-19T06:24:34;30.50;41.10
50738;DHT22;36703;48.154;17.126;2022-08-19T06:28:36;30.50;41.00
50738;DHT22;36703;48.154;17.126;2022-08-19T06:32:37;30.50;41.00
50738;DHT22;36703;48.154;17.126;2022-08-19T06:36:42;30.60;41.00
50738;DHT22;36703;48.154;17.126;2022-08-19T06:40:45;30.60;40.90
50738;DHT22;36703;48.154;17.126;2022-08-19T06:44:47;30.70;40.80
50738;DHT22;36703;48.154;17.126;2022-08-19T06:48:50;30.80;40.80
50738;DHT22;36703;48.154;17.126;2022-08-19T06:52:53;30.80;40.70
50738;DHT22;36703;48.154;17.126;2022-08-19T06:56:57;30.90;40.70
50738;DHT22;36703;48.154;17.126;2022-08-19T07:01:02;30.90;40.60
50738;DHT22;36703;48.154;17.126;2022-08-19T07:05:05;31.00;41.30
50738;DHT22;36703;48.154;17.126;2022-08-19T07:09:09;30.90;40.80
50738;DHT22;36703;48.154;17.126;2022-08-19T07:13:13;30.90;41.10
50738;DHT22;36703;48.154;17.126;2022-08-19T07:17:15;31.00;41.30
50738;DHT22;36703;48.154;17.126;2022-08-19T07:21:25;31.00;41.40
50738;DHT22;36703;48.154;17.126;2022-08-19T07:25:28;31.10;41.60
50738;DHT22;36703;48.154;17.126;2022-08-19T07:29:32;31.10;41.70
50738;DHT22;36703;48.154;17.126;2022-08-19T07:33:34;31.20;41.80
50738;DHT22;36703;48.154;17.126;2022-08-19T07:37:37;31.20;41.90
50738;DHT22;36703;48.154;17.126;2022-08-19T07:41:39;31.20;41.90
50738;DHT22;36703;48.154;17.126;2022-08-19T07:45:41;31.30;42.40
50738;DHT22;36703;48.154;17.126;2022-08-19T07:49:43;31.40;42.30
50738;DHT22;36703;48.154;17.126;2022-08-19T07:53:45;31.40;41.90
50738;DHT22;36703;48.154;17.126;2022-08-19T07:57:46;31.40;41.80
50738;DHT22;36703;48.154;17.126;2022-08-19T08:01:48;31.30;41.60
50738;DHT22;36703;48.154;17.126;2022-08-19T08:05:50;31.30;41.50
50738;DHT22;36703;48.154;17.126;2022-08-19T08:10:10;31.30;41.40
50738;DHT22;36703;48.154;17.126;2022-08-19T08:14:12;31.30;41.40
50738;DHT22;36703;48.154;17.126;2022-08-19T08:18:14;31.40;41.20
50738;DHT22;36703;48.154;17.126;2022-08-19T08:22:17;31.40;41.00
50738;DHT22;36703;48.154;17.126;2022-08-19T08:26:38;31.50;40.90
50738;DHT22;36703;48.154;17.126;2022-08-19T08:30:40;31.60;40.80
50738;DHT22;36703;48.154;17.126;2022-08-19T08:34:43;31.70;40.60
50738;DHT22;36703;48.154;17.126;2022-08-19T08:38:45;31.90;40.50
50738;DHT22;36703;48.154;17.126;2022-08-19T08:42:57;32.00;40.40
50738;DHT22;36703;48.154;17.126;2022-08-19T08:47:10;32.10;40.00
50738;DHT22;36703;48.154;17.126;2022-08-19T08:51:20;32.30;39.70
50738;DHT22;36703;48.154;17.126;2022-08-19T08:55:26;32.40;39.50
50738;DHT22;36703;48.154;17.126;2022-08-19T08:59:35;32.50;39.10
50738;DHT22;36703;48.154;17.126;2022-08-19T09:03:39;32.70;38.90
50738;DHT22;36703;48.154;17.126;2022-08-19T09:16:31;33.10;38.40
50738;DHT22;36703;48.154;17.126;2022-08-19T09:20:33;33.20;38.20
50738;DHT22;36703;48.154;17.126;2022-08-19T09:24:35;33.30;38.00
50738;DHT22;36703;48.154;17.126;2022-08-19T09:28:37;33.40;37.90
50738;DHT22;36703;48.154;17.126;2022-08-19T09:32:38;33.80;37.80
50738;DHT22;36703;48.154;17.126;2022-08-19T09:36:43;34.00;37.40
50738;DHT22;36703;48.154;17.126;2022-08-19T09:40:44;34.20;37.60
50738;DHT22;36703;48.154;17.126;2022-08-19T09:44:46;34.50;37.30
50738;DHT22;36703;48.154;17.126;2022-08-19T09:48:49;35.20;36.50
50738;DHT22;36703;48.154;17.126;2022-08-19T09:52:52;36.00;35.50
50738;DHT22;36703;48.154;17.126;2022-08-19T09:56:55;36.80;34.50
50738;DHT22;36703;48.154;17.126;2022-08-19T10:01:00;37.60;33.60
50738;DHT22;36703;48.154;17.126;2022-08-19T10:05:03;38.20;32.80
50738;DHT22;36703;48.154;17.126;2022-08-19T10:09:23;38.50;32.10
50738;DHT22;36703;48.154;17.126;2022-08-19T10:13:27;38.40;31.80
50738;DHT22;36703;48.154;17.126;2022-08-19T10:17:30;38.50;31.70
50738;DHT22;36703;48.154;17.126;2022-08-19T10:21:34;38.50;31.40
50738;DHT22;36703;48.154;17.126;2022-08-19T10:25:36;38.00;31.60
50738;DHT22;36703;48.154;17.126;2022-08-19T10:29:38;37.20;32.20
50738;DHT22;36703;48.154;17.126;2022-08-19T10:33:40;36.70;32.70
50738;DHT22;36703;48.154;17.126;2022-08-19T10:37:42;36.20;33.00
50738;DHT22;36703;48.154;17.126;2022-08-19T10:41:43;35.70;33.30
50738;DHT22;36703;48.154;17.126;2022-08-19T10:45:52;35.40;33.70
50738;DHT22;36703;48.154;17.126;2022-08-19T10:49:56;35.20;33.90
50738;DHT22;36703;48.154;17.126;2022-08-19T10:54:16;35.10;34.00
50738;DHT22;36703;48.154;17.126;2022-08-19T10:58:19;34.90;34.20
50738;DHT22;36703;48.154;17.126;2022-08-19T11:02:23;34.80;34.40
50738;DHT22;36703;48.154;17.126;2022-08-19T11:06:24;34.70;34.70
50738;DHT22;36703;48.154;17.126;2022-08-19T11:10:26;34.50;34.70
50738;DHT22;36703;48.154;17.126;2022-08-19T11:14:27;34.50;35.00
50738;DHT22;36703;48.154;17.126;2022-08-19T11:18:31;34.40;35.00
50738;DHT22;36703;48.154;17.126;2022-08-19T11:22:33;34.40;35.30
50738;DHT22;36703;48.154;17.126;2022-08-19T11:26:37;34.50;35.40
50738;DHT22;36703;48.154;17.126;2022-08-19T11:30:39;34.50;35.20
50738;DHT22;36703;48.154;17.126;2022-08-19T11:34:40;34.40;35.30
50738;DHT22;36703;48.154;17.126;2022-08-19T11:38:42;34.40;35.50
50738;DHT22;36703;48.154;17.126;2022-08-19T11:42:43;34.30;35.50
50738;DHT22;36703;48.154;17.126;2022-08-19T11:46:56;34.20;35.50
50738;DHT22;36703;48.154;17.126;2022-08-19T11:50:58;34.20;35.40
50738;DHT22;36703;48.154;17.126;2022-08-19T11:55:00;34.00;35.10
50738;DHT22;36703;48.154;17.126;2022-08-19T11:59:01;33.90;34.90
50738;DHT22;36703;48.154;17.126;2022-08-19T12:03:03;33.80;34.90
50738;DHT22;36703;48.154;17.126;2022-08-19T12:07:04;33.70;35.10
50738;DHT22;36703;48.154;17.126;2022-08-19T12:11:06;33.60;35.30
50738;DHT22;36703;48.154;17.126;2022-08-19T12:15:11;33.60;35.50
50738;DHT22;36703;48.154;17.126;2022-08-19T12:19:13;33.50;35.60
50738;DHT22;36703;48.154;17.126;2022-08-19T12:23:15;33.40;36.40
50738;DHT22;36703;48.154;17.126;2022-08-19T12:27:16;33.30;36.10
50738;DHT22;36703;48.154;17.126;2022-08-19T12:31:19;33.10;36.50
50738;DHT22;36703;48.154;17.126;2022-08-19T12:35:20;33.00;36.80
50738;DHT22;36703;48.154;17.126;2022-08-19T12:39:22;32.90;37.10
50738;DHT22;36703;48.154;17.126;2022-08-19T12:43:23;32.90;37.20
50738;DHT22;36703;48.154;17.126;2022-08-19T12:47:27;33.00;37.40
50738;DHT22;36703;48.154;17.126;2022-08-19T12:51:28;33.00;37.50
50738;DHT22;36703;48.154;17.126;2022-08-19T12:55:29;33.10;37.60
50738;DHT22;36703;48.154;17.126;2022-08-19T12:59:31;33.30;37.50
50738;DHT22;36703;48.154;17.126;2022-08-19T13:03:32;33.30;37.20
50738;DHT22;36703;48.154;17.126;2022-08-19T13:07:33;33.30;37.10
50738;DHT22;36703;48.154;17.126;2022-08-19T13:11:36;33.30;37.10
50738;DHT22;36703;48.154;17.126;2022-08-19T13:15:40;33.10;37.10
50738;DHT22;36703;48.154;17.126;2022-08-19T13:19:43;33.00;37.20
50738;DHT22;36703;48.154;17.126;2022-08-19T13:23:44;32.90;37.10
50738;DHT22;36703;48.154;17.126;2022-08-19T13:27:46;32.90;37.10
50738;DHT22;36703;48.154;17.126;2022-08-19T13:31:48;32.80;37.20
50738;DHT22;36703;48.154;17.126;2022-08-19T13:36:08;32.70;37.70
50738;DHT22;36703;48.154;17.126;2022-08-19T13:40:21;32.60;37.90
50738;DHT22;36703;48.154;17.126;2022-08-19T13:44:24;32.40;37.10
50738;DHT22;36703;48.154;17.126;2022-08-19T13:48:26;32.20;37.00
50738;DHT22;36703;48.154;17.126;2022-08-19T13:52:27;32.20;37.50
50738;DHT22;36703;48.154;17.126;2022-08-19T13:56:29;32.10;38.00
50738;DHT22;36703;48.154;17.126;2022-08-19T14:00:34;32.00;38.10
50738;DHT22;36703;48.154;17.126;2022-08-19T14:04:37;31.90;37.90
50738;DHT22;36703;48.154;17.126;2022-08-19T14:08:38;31.80;38.00
50738;DHT22;36703;48.154;17.126;2022-08-19T14:12:42;31.70;38.50
50738;DHT22;36703;48.154;17.126;2022-08-19T14:16:44;31.50;39.10
50738;DHT22;36703;48.154;17.126;2022-08-19T14:20:46;31.50;39.70
50738;DHT22;36703;48.154;17.126;2022-08-19T14:24:47;31.50;40.20
50738;DHT22;36703;48.154;17.126;2022-08-19T14:28:49;31.50;40.60
50738;DHT22;36703;48.154;17.126;2022-08-19T14:32:50;31.50;41.20
50738;DHT22;36703;48.154;17.126;2022-08-19T14:36:52;31.50;41.50
50738;DHT22;36703;48.154;17.126;2022-08-19T14:40:54;31.50;42.00
50738;DHT22;36703;48.154;17.126;2022-08-19T14:44:58;31.40;42.60
50738;DHT22;36703;48.154;17.126;2022-08-19T14:49:00;31.20;43.20
50738;DHT22;36703;48.154;17.126;2022-08-19T14:53:04;31.10;43.80
50738;DHT22;36703;48.154;17.126;2022-08-19T14:57:11;31.10;44.30
50738;DHT22;36703;48.154;17.126;2022-08-19T15:01:14;31.10;44.60
50738;DHT22;36703;48.154;17.126;2022-08-19T15:05:15;31.20;44.90
50738;DHT22;36703;48.154;17.126;2022-08-19T15:09:17;31.30;44.90
50738;DHT22;36703;48.154;17.126;2022-08-19T15:13:18;31.40;44.80
50738;DHT22;36703;48.154;17.126;2022-08-19T15:17:20;31.50;44.80
50738;DHT22;36703;48.154;17.126;2022-08-19T15:21:22;31.60;45.00
50738;DHT22;36703;48.154;17.126;2022-08-19T15:25:24;31.60;45.30
50738;DHT22;36703;48.154;17.126;2022-08-19T15:29:26;31.50;45.50
50738;DHT22;36703;48.154;17.126;2022-08-19T15:33:28;31.60;45.80
50738;DHT22;36703;48.154;17.126;2022-08-19T15:37:31;31.60;45.70
50738;DHT22;36703;48.154;17.126;2022-08-19T15:41:32;31.60;45.70
50738;DHT22;36703;48.154;17.126;2022-08-19T15:45:34;31.60;45.60
50738;DHT22;36703;48.154;17.126;2022-08-19T15:49:36;31.70;45.40
50738;DHT22;36703;48.154;17.126;2022-08-19T15:53:37;31.70;45.30
50738;DHT22;36703;48.154;17.126;2022-08-19T15:57:40;31.70;45.10
50738;DHT22;36703;48.154;17.126;2022-08-19T16:02:00;31.70;45.50
50738;DHT22;36703;48.154;17.126;2022-08-19T16:06:20;31.70;46.00
50738;DHT22;36703;48.154;17.126;2022-08-19T16:10:28;31.70;46.20
50738;DHT22;36703;48.154;17.126;2022-08-19T16:14:31;31.50;45.70
50738;DHT22;36703;48.154;17.126;2022-08-19T16:18:34;31.50;45.60
50738;DHT22;36703;48.154;17.126;2022-08-19T16:22:39;31.50;45.50
50738;DHT22;36703;48.154;17.126;2022-08-19T16:26:42;31.40;45.40
50738;DHT22;36703;48.154;17.126;2022-08-19T16:30:43;31.30;45.20
50738;DHT22;36703;48.154;17.126;2022-08-19T16:34:45;31.30;45.00
50738;DHT22;36703;48.154;17.126;2022-08-19T16:38:47;31.20;44.80
50738;DHT22;36703;48.154;17.126;2022-08-19T16:42:49;31.10;44.60
50738;DHT22;36703;48.154;17.126;2022-08-19T16:46:52;31.10;44.50
50738;DHT22;36703;48.154;17.126;2022-08-19T16:50:59;31.00;44.40
50738;DHT22;36703;48.154;17.126;2022-08-19T16:55:01;31.00;44.40
50738;DHT22;36703;48.154;17.126;2022-08-19T16:59:02;31.00;44.40
50738;DHT22;36703;48.154;17.126;2022-08-19T17:03:08;30.90;44.40
50738;DHT22;36703;48.154;17.126;2022-08-19T17:07:10;30.90;44.60
50738;DHT22;36703;48.154;17.126;2022-08-19T17:11:12;30.80;44.70
50738;DHT22;36703;48.154;17.126;2022-08-19T17:15:13;30.70;44.80
50738;DHT22;36703;48.154;17.126;2022-08-19T17:19:14;30.70;44.90
50738;DHT22;36703;48.154;17.126;2022-08-19T17:23:17;30.60;44.90
50738;DHT22;36703;48.154;17.126;2022-08-19T17:27:28;30.60;45.00
50738;DHT22;36703;48.154;17.126;2022-08-19T17:31:30;30.50;44.90
50738;DHT22;36703;48.154;17.126;2022-08-19T17:35:33;30.50;44.90
50738;DHT22;36703;48.154;17.126;2022-08-19T17:39:35;30.40;44.70
50738;DHT22;36703;48.154;17.126;2022-08-19T17:43:38;30.40;44.50
50738;DHT22;36703;48.154;17.126;2022-08-19T17:47:40;30.40;44.40
50738;DHT22;36703;48.154;17.126;2022-08-19T17:51:44;30.30;44.30
50738;DHT22;36703;48.154;17.126;2022-08-19T17:55:46;30.10;44.10
50738;DHT22;36703;48.154;17.126;2022-08-19T17:59:47;30.20;44.20
50738;DHT22;36703;48.154;17.126;2022-08-19T18:03:49;30.20;44.20
50738;DHT22;36703;48.154;17.126;2022-08-19T18:07:54;30.20;44.10
50738;DHT22;36703;48.154;17.126;2022-08-19T18:11:58;30.20;44.00
50738;DHT22;36703;48.154;17.126;2022-08-19T18:15:59;30.20;43.90
50738;DHT22;36703;48.154;17.126;2022-08-19T18:20:02;30.10;43.90
50738;DHT22;36703;48.154;17.126;2022-08-19T18:24:06;30.10;43.90
50738;DHT22;36703;48.154;17.126;2022-08-19T18:28:08;30.00;43.70
50738;DHT22;36703;48.154;17.126;2022-08-19T18:32:09;30.00;43.70
50738;DHT22;36703;48.154;17.126;2022-08-19T18:36:14;30.00;43.70
50738;DHT22;36703;48.154;17.126;2022-08-19T18:40:18;30.00;43.70
50738;DHT22;36703;48.154;17.126;2022-08-19T18:44:39;29.90;43.50
50738;DHT22;36703;48.154;17.126;2022-08-19T18:48:59;29.90;43.50
50738;DHT22;36703;48.154;17.126;2022-08-19T18:53:07;29.90;43.60
50738;DHT22;36703;48.154;17.126;2022-08-19T18:57:08;29.90;44.00
50738;DHT22;36703;48.154;17.126;2022-08-19T19:01:13;29.90;43.70
50738;DHT22;36703;48.154;17.126;2022-08-19T19:05:17;29.90;43.80
50738;DHT22;36703;48.154;17.126;2022-08-19T19:09:22;29.90;43.80
50738;DHT22;36703;48.154;17.126;2022-08-19T19:13:24;29.90;43.90
50738;DHT22;36703;48.154;17.126;2022-08-19T19:17:28;29.80;43.90
50738;DHT22;36703;48.154;17.126;2022-08-19T19:21:29;29.80;44.10
50738;DHT22;36703;48.154;17.126;2022-08-19T19:25:31;29.80;44.30
50738;DHT22;36703;48.154;17.126;2022-08-19T19:29:34;29.70;44.50
50738;DHT22;36703;48.154;17.126;2022-08-19T19:33:40;29.70;44.70
50738;DHT22;36703;48.154;17.126;2022-08-19T19:37:43;29.60;44.90
50738;DHT22;36703;48.154;17.126;2022-08-19T19:41:45;29.60;45.10
50738;DHT22;36703;48.154;17.126;2022-08-19T19:45:47;29.50;45.20
50738;DHT22;36703;48.154;17.126;2022-08-19T19:49:49;29.50;45.30
50738;DHT22;36703;48.154;17.126;2022-08-19T19:53:55;29.50;45.60
50738;DHT22;36703;48.154;17.126;2022-08-19T19:57:57;29.60;45.80
50738;DHT22;36703;48.154;17.126;2022-08-19T20:01:58;29.50;45.80
50738;DHT22;36703;48.154;17.126;2022-08-19T20:06:01;29.50;45.90
50738;DHT22;36703;48.154;17.126;2022-08-19T20:10:02;29.50;46.00
50738;DHT22;36703;48.154;17.126;2022-08-19T20:14:13;29.50;46.20
50738;DHT22;36703;48.154;17.126;2022-08-19T20:18:19;29.50;46.30
50738;DHT22;36703;48.154;17.126;2022-08-19T20:22:21;29.60;46.50
50738;DHT22;36703;48.154;17.126;2022-08-19T20:26:23;29.60;46.50
50738;DHT22;36703;48.154;17.126;2022-08-19T20:30:26;29.60;46.60
50738;DHT22;36703;48.154;17.126;2022-08-19T20:34:28;29.60;46.60
50738;DHT22;36703;48.154;17.126;2022-08-19T20:38:30;29.60;46.70
50738;DHT22;36703;48.154;17.126;2022-08-19T20:42:35;29.60;46.90
50738;DHT22;36703;48.154;17.126;2022-08-19T20:46:40;29.60;47.20
50738;DHT22;36703;48.154;17.126;2022-08-19T20:50:41;29.50;47.60
50738;DHT22;36703;48.154;17.126;2022-08-19T20:54:43;29.50;48.10
50738;DHT22;36703;48.154;17.126;2022-08-19T20:58:44;29.50;47.90
50738;DHT22;36703;48.154;17.126;2022-08-19T21:02:45;29.50;47.90
50738;DHT22;36703;48.154;17.126;2022-08-19T21:06:47;29.50;47.80
50738;DHT22;36703;48.154;17.126;2022-08-19T21:10:51;29.30;48.00
50738;DHT22;36703;48.154;17.126;2022-08-19T21:14:52;29.10;48.70
50738;DHT22;36703;48.154;17.126;2022-08-19T21:18:54;29.00;49.10
50738;DHT22;36703;48.154;17.126;2022-08-19T21:22:55;29.10;49.10
50738;DHT22;36703;48.154;17.126;2022-08-19T21:26:56;29.20;49.00
50738;DHT22;36703;48.154;17.126;2022-08-19T21:30:58;29.30;48.90
50738;DHT22;36703;48.154;17.126;2022-08-19T21:35:00;29.20;49.10
50738;DHT22;36703;48.154;17.126;2022-08-19T21:39:04;29.10;49.40
50738;DHT22;36703;48.154;17.126;2022-08-19T21:43:05;29.10;49.40
50738;DHT22;36703;48.154;17.126;2022-08-19T21:47:07;29.20;49.50
50738;DHT22;36703;48.154;17.126;2022-08-19T21:51:08;29.20;49.50
50738;DHT22;36703;48.154;17.126;2022-08-19T21:55:09;29.30;50.20
50738;DHT22;36703;48.154;17.126;2022-08-19T21:59:12;29.30;49.60
50738;DHT22;36703;48.154;17.126;2022-08-19T22:03:16;29.20;49.80
50738;DHT22;36703;48.154;17.126;2022-08-19T22:07:21;29.00;50.40
50738;DHT22;36703;48.154;17.126;2022-08-19T22:11:23;29.00;50.50
50738;DHT22;36703;48.154;17.126;2022-08-19T22:15:26;29.00;50.40
50738;DHT22;36703;48.154;17.126;2022-08-19T22:19:29;29.10;50.30
50738;DHT22;36703;48.154;17.126;2022-08-19T22:23:31;29.10;50.30
50738;DHT22;36703;48.154;17.126;2022-08-19T22:27:33;29.20;50.40
50738;DHT22;36703;48.154;17.126;2022-08-19T22:31:35;29.20;50.30
50738;DHT22;36703;48.154;17.126;2022-08-19T22:35:38;29.30;50.20
50738;DHT22;36703;48.154;17.126;2022-08-19T22:39:41;29.30;50.10
50738;DHT22;36703;48.154;17.126;2022-08-19T22:43:42;28.60;50.00
50738;DHT22;36703;48.154;17.126;2022-08-19T22:47:46;28.90;50.70
50738;DHT22;36703;48.154;17.126;2022-08-19T22:51:47;28.90;51.00
50738;DHT22;36703;48.154;17.126;2022-08-19T22:56:09;29.00;51.00
50738;DHT22;36703;48.154;17.126;2022-08-19T23:00:11;29.10;50.80
50738;DHT22;36703;48.154;17.126;2022-08-19T23:04:13;29.10;50.60
50738;DHT22;36703;48.154;17.126;2022-08-19T23:08:14;29.20;50.40
50738;DHT22;36703;48.154;17.126;2022-08-19T23:12:46;29.20;50.40
50738;DHT22;36703;48.154;17.126;2022-08-19T23:16:46;29.40;50.30
50738;DHT22;36703;48.154;17.126;2022-08-19T23:20:49;29.20;50.10
50738;DHT22;36703;48.154;17.126;2022-08-19T23:24:51;29.10;50.00
50738;DHT22;36703;48.154;17.126;2022-08-19T23:28:53;29.00;50.10
50738;DHT22;36703;48.154;17.126;2022-08-19T23:33:25;29.00;50.30
50738;DHT22;36703;48.154;17.126;2022-08-19T23:37:31;29.00;50.30
50738;DHT22;36703;48.154;17.126;2022-08-19T23:41:32;29.00;50.30
50738;DHT22;36703;48.154;17.126;2022-08-19T23:45:39;28.90;50.30
50738;DHT22;36703;48.154;17.126;2022-08-19T23:49:41;28.80;50.60
50738;DHT22;36703;48.154;17.126;2022-08-19T23:53:42;28.70;50.80
50738;DHT22;36703;48.154;17.126;2022-08-19T23:57:44;28.70;50.80
